sensor_id;sensor_type;location;lat;lon;timestamp;P1;durP1;ratioP1;P2;durP2;ratioP2
15500;SDS011;7852;52.228;5.990;2023-09-12T00:00:53;61;;;37.8;;
15500;SDS011;7852;52.228;5.990;2023-09-12T00:01:33;50.4;;;35;;
15500;SDS011;7852;52.228;5.990;2023-09-12T00:02:33;57.1;;;36.5;;
15500;SDS011;7852;52.228;5.990;2023-09-12T00:03:34;59.8;;;36.5;;
15500;SDS011;7852;52.228;5.990;2023-09-12T00:04:33;53.2;;;35.8;;
15500;SDS011;7852;52.228;5.990;2023-09-12T00:05:33;54.6;;;37.7;;
15500;SDS011;7852;52.228;5.990;2023-09-12T00:06:33;47.3;;;34.4;;
15500;SDS011;7852;52.228;5.990;2023-09-12T00:07:34;52;;;35.9;;
15500;SDS011;7852;52.228;5.990;2023-09-12T00:08:33;48.6;;;34.1;;
15500;SDS011;7852;52.228;5.990;2023-09-12T00:09:33;47.6;;;34.3;;
15500;SDS011;7852;52.228;5.990;2023-09-12T00:10:33;56.7;;;37.1;;
15500;SDS011;7852;52.228;5.990;2023-09-12T00:11:33;54.7;;;36.9;;
15500;SDS011;7852;52.228;5.990;2023-09-12T00:12:33;59.4;;;36.2;;
15500;SDS011;7852;52.228;5.990;2023-09-12T00:13:33;65;;;38.2;;
15500;SDS011;7852;52.228;5.990;2023-09-12T00:14:33;66.2;;;38.4;;
15500;SDS011;7852;52.228;5.990;2023-09-12T00:15:33;65.2;;;38.3;;
15500;SDS011;7852;52.228;5.990;2023-09-12T00:16:33;67.7;;;38.4;;
15500;SDS011;7852;52.228;5.990;2023-09-12T00:17:33;69;;;39.5;;
15500;SDS011;7852;52.228;5.990;2023-09-12T00:18:33;79.8;;;39.5;;
15500;SDS011;7852;52.228;5.990;2023-09-12T00:19:34;80.6;;;37.9;;
15500;SDS011;7852;52.228;5.990;2023-09-12T00:20:33;70.1;;;38.8;;
15500;SDS011;7852;52.228;5.990;2023-09-12T00:21:33;76.1;;;37.6;;
15500;SDS011;7852;52.228;5.990;2023-09-12T00:22:33;81.4;;;38.1;;
15500;SDS011;7852;52.228;5.990;2023-09-12T00:23:35;78.6;;;37.7;;
15500;SDS011;7852;52.228;5.990;2023-09-12T00:24:33;84.5;;;38.1;;
15500;SDS011;7852;52.228;5.990;2023-09-12T00:25:33;68.1;;;36.2;;
15500;SDS011;7852;52.228;5.990;2023-09-12T00:26:33;63.5;;;36.2;;
15500;SDS011;7852;52.228;5.990;2023-09-12T00:27:33;69.5;;;36.9;;
15500;SDS011;7852;52.228;5.990;2023-09-12T00:28:33;61.9;;;37.7;;
15500;SDS011;7852;52.228;5.990;2023-09-12T00:29:33;62.5;;;37.1;;
15500;SDS011;7852;52.228;5.990;2023-09-12T00:30:33;64.2;;;38.2;;
15500;SDS011;7852;52.228;5.990;2023-09-12T00:31:33;69.3;;;39.1;;
15500;SDS011;7852;52.228;5.990;2023-09-12T00:32:33;68.1;;;39.2;;
15500;SDS011;7852;52.228;5.990;2023-09-12T00:33:34;70.6;;;39.1;;
15500;SDS011;7852;52.228;5.990;2023-09-12T00:34:34;65.4;;;39.2;;
15500;SDS011;7852;52.228;5.990;2023-09-12T00:35:33;68.1;;;40.9;;
15500;SDS011;7852;52.228;5.990;2023-09-12T00:36:33;63;;;39.2;;
15500;SDS011;7852;52.228;5.990;2023-09-12T00:37:33;65.3;;;41;;
15500;SDS011;7852;52.228;5.990;2023-09-12T00:38:33;61.1;;;38.7;;
15500;SDS011;7852;52.228;5.990;2023-09-12T00:39:33;70;;;39.4;;
15500;SDS011;7852;52.228;5.990;2023-09-12T00:40:33;51;;;36.2;;
15500;SDS011;7852;52.228;5.990;2023-09-12T00:41:33;53.4;;;34.3;;
15500;SDS011;7852;52.228;5.990;2023-09-12T00:42:33;54.7;;;36.7;;
15500;SDS011;7852;52.228;5.990;2023-09-12T00:43:33;54.5;;;37.1;;
15500;SDS011;7852;52.228;5.990;2023-09-12T00:44:33;55.9;;;37.6;;
15500;SDS011;7852;52.228;5.990;2023-09-12T00:45:33;62.1;;;38.5;;
15500;SDS011;7852;52.228;5.990;2023-09-12T00:46:33;60.6;;;38.3;;
15500;SDS011;7852;52.228;5.990;2023-09-12T00:47:33;54.7;;;36.7;;
15500;SDS011;7852;52.228;5.990;2023-09-12T00:48:33;59.6;;;36.9;;
15500;SDS011;7852;52.228;5.990;2023-09-12T00:49:33;59.3;;;38.9;;
15500;SDS011;7852;52.228;5.990;2023-09-12T00:50:34;63.5;;;38.3;;
15500;SDS011;7852;52.228;5.990;2023-09-12T00:51:33;62.1;;;38.4;;
15500;SDS011;7852;52.228;5.990;2023-09-12T00:52:34;62.6;;;39.5;;
15500;SDS011;7852;52.228;5.990;2023-09-12T00:53:33;61;;;38.3;;
15500;SDS011;7852;52.228;5.990;2023-09-12T00:54:33;62.2;;;39.2;;
15500;SDS011;7852;52.228;5.990;2023-09-12T00:55:33;60.2;;;37.6;;
15500;SDS011;7852;52.228;5.990;2023-09-12T00:56:33;62.8;;;38.8;;
15500;SDS011;7852;52.228;5.990;2023-09-12T00:57:33;57.1;;;36.3;;
15500;SDS011;7852;52.228;5.990;2023-09-12T00:58:33;59.3;;;39.2;;
15500;SDS011;7852;52.228;5.990;2023-09-12T00:59:34;57.4;;;38.7;;
15500;SDS011;7852;52.228;5.990;2023-09-12T01:00:33;61.1;;;37.6;;
15500;SDS011;7852;52.228;5.990;2023-09-12T01:01:33;58.9;;;38.7;;
15500;SDS011;7852;52.228;5.990;2023-09-12T01:02:33;57.1;;;39.1;;
15500;SDS011;7852;52.228;5.990;2023-09-12T01:03:33;56;;;36.3;;
15500;SDS011;7852;52.228;5.990;2023-09-12T01:04:34;54.8;;;36.3;;
15500;SDS011;7852;52.228;5.990;2023-09-12T01:05:33;92.6;;;38.9;;
15500;SDS011;7852;52.228;5.990;2023-09-12T01:06:34;58.3;;;35.3;;
15500;SDS011;7852;52.228;5.990;2023-09-12T01:07:34;55.6;;;35.3;;
15500;SDS011;7852;52.228;5.990;2023-09-12T01:08:34;61.8;;;37.5;;
15500;SDS011;7852;52.228;5.990;2023-09-12T01:09:34;56.5;;;36.3;;
15500;SDS011;7852;52.228;5.990;2023-09-12T01:10:33;63.9;;;37.6;;
15500;SDS011;7852;52.228;5.990;2023-09-12T01:11:33;55.7;;;36;;
15500;SDS011;7852;52.228;5.990;2023-09-12T01:12:34;54.4;;;35.3;;
15500;SDS011;7852;52.228;5.990;2023-09-12T01:13:33;59.6;;;37.4;;
15500;SDS011;7852;52.228;5.990;2023-09-12T01:14:33;60.3;;;38.4;;
15500;SDS011;7852;52.228;5.990;2023-09-12T01:15:33;57.4;;;37.8;;
15500;SDS011;7852;52.228;5.990;2023-09-12T01:16:33;63.8;;;36.2;;
15500;SDS011;7852;52.228;5.990;2023-09-12T01:17:33;60.4;;;37.5;;
15500;SDS011;7852;52.228;5.990;2023-09-12T01:18:34;56.3;;;35.3;;
15500;SDS011;7852;52.228;5.990;2023-09-12T01:19:34;61;;;37.5;;
15500;SDS011;7852;52.228;5.990;2023-09-12T01:20:34;63;;;36.7;;
15500;SDS011;7852;52.228;5.990;2023-09-12T01:21:36;57;;;34.4;;
15500;SDS011;7852;52.228;5.990;2023-09-12T01:22:40;51.1;;;33.7;;
15500;SDS011;7852;52.228;5.990;2023-09-12T01:23:37;74.3;;;36;;
15500;SDS011;7852;52.228;5.990;2023-09-12T01:24:41;68.1;;;37.4;;
15500;SDS011;7852;52.228;5.990;2023-09-12T01:26:12;67;;;35.4;;
15500;SDS011;7852;52.228;5.990;2023-09-12T01:26:37;73.4;;;34.7;;
15500;SDS011;7852;52.228;5.990;2023-09-12T01:27:34;84.7;;;35.6;;
15500;SDS011;7852;52.228;5.990;2023-09-12T01:28:34;60.2;;;33.1;;
15500;SDS011;7852;52.228;5.990;2023-09-12T01:29:33;57.4;;;32;;
15500;SDS011;7852;52.228;5.990;2023-09-12T01:30:33;66.5;;;32.8;;
15500;SDS011;7852;52.228;5.990;2023-09-12T01:31:34;62.1;;;31.9;;
15500;SDS011;7852;52.228;5.990;2023-09-12T01:32:33;49.5;;;32.6;;
15500;SDS011;7852;52.228;5.990;2023-09-12T01:33:33;61;;;30.5;;
15500;SDS011;7852;52.228;5.990;2023-09-12T01:34:33;40.4;;;28.9;;
15500;SDS011;7852;52.228;5.990;2023-09-12T01:35:33;41.9;;;29.8;;
15500;SDS011;7852;52.228;5.990;2023-09-12T01:36:34;38;;;27.9;;
15500;SDS011;7852;52.228;5.990;2023-09-12T01:37:33;45.2;;;29.8;;
15500;SDS011;7852;52.228;5.990;2023-09-12T01:38:33;80;;;28;;
15500;SDS011;7852;52.228;5.990;2023-09-12T01:39:34;62.9;;;27;;
15500;SDS011;7852;52.228;5.990;2023-09-12T01:40:35;100.3;;;28.2;;
15500;SDS011;7852;52.228;5.990;2023-09-12T01:41:34;88;;;27.9;;
15500;SDS011;7852;52.228;5.990;2023-09-12T01:42:35;79.3;;;27.6;;
15500;SDS011;7852;52.228;5.990;2023-09-12T01:43:33;72.3;;;27.7;;
15500;SDS011;7852;52.228;5.990;2023-09-12T01:44:33;116;;;28.7;;
15500;SDS011;7852;52.228;5.990;2023-09-12T01:45:33;191.9;;;31.7;;
15500;SDS011;7852;52.228;5.990;2023-09-12T01:46:33;152.1;;;29.5;;
15500;SDS011;7852;52.228;5.990;2023-09-12T01:47:34;158.2;;;29.8;;
15500;SDS011;7852;52.228;5.990;2023-09-12T01:48:34;263;;;31.6;;
15500;SDS011;7852;52.228;5.990;2023-09-12T01:49:33;255.7;;;33.3;;
15500;SDS011;7852;52.228;5.990;2023-09-12T01:50:33;157.7;;;28.8;;
15500;SDS011;7852;52.228;5.990;2023-09-12T01:51:34;78.9;;;25.4;;
15500;SDS011;7852;52.228;5.990;2023-09-12T01:52:34;120.1;;;25.6;;
15500;SDS011;7852;52.228;5.990;2023-09-12T01:53:34;119.5;;;26.8;;
15500;SDS011;7852;52.228;5.990;2023-09-12T01:54:34;108;;;27;;
15500;SDS011;7852;52.228;5.990;2023-09-12T01:55:33;192.3;;;29.3;;
15500;SDS011;7852;52.228;5.990;2023-09-12T01:56:34;158.3;;;26.5;;
15500;SDS011;7852;52.228;5.990;2023-09-12T01:57:33;80.8;;;24.7;;
15500;SDS011;7852;52.228;5.990;2023-09-12T01:58:34;61.6;;;23.9;;
15500;SDS011;7852;52.228;5.990;2023-09-12T01:59:33;184.4;;;32.1;;
15500;SDS011;7852;52.228;5.990;2023-09-12T02:00:33;87.3;;;26;;
15500;SDS011;7852;52.228;5.990;2023-09-12T02:01:34;176.6;;;29.8;;
15500;SDS011;7852;52.228;5.990;2023-09-12T02:02:33;189.3;;;26.9;;
15500;SDS011;7852;52.228;5.990;2023-09-12T02:03:34;104.4;;;23.3;;
15500;SDS011;7852;52.228;5.990;2023-09-12T02:04:34;32.5;;;25.9;;
15500;SDS011;7852;52.228;5.990;2023-09-12T02:05:33;45.9;;;29.9;;
15500;SDS011;7852;52.228;5.990;2023-09-12T02:06:34;47.2;;;31.8;;
15500;SDS011;7852;52.228;5.990;2023-09-12T02:07:35;45.9;;;32.1;;
15500;SDS011;7852;52.228;5.990;2023-09-12T02:08:33;39.6;;;28.6;;
15500;SDS011;7852;52.228;5.990;2023-09-12T02:09:33;42.5;;;30;;
15500;SDS011;7852;52.228;5.990;2023-09-12T02:10:34;50.5;;;31.1;;
15500;SDS011;7852;52.228;5.990;2023-09-12T02:11:33;56.4;;;30.9;;
15500;SDS011;7852;52.228;5.990;2023-09-12T02:12:34;552.7;;;41;;
15500;SDS011;7852;52.228;5.990;2023-09-12T02:13:33;446.8;;;36;;
15500;SDS011;7852;52.228;5.990;2023-09-12T02:14:34;614.8;;;42.9;;
15500;SDS011;7852;52.228;5.990;2023-09-12T02:15:34;407.1;;;36.1;;
15500;SDS011;7852;52.228;5.990;2023-09-12T02:16:35;132.8;;;27.9;;
15500;SDS011;7852;52.228;5.990;2023-09-12T02:17:34;365;;;38.8;;
15500;SDS011;7852;52.228;5.990;2023-09-12T02:18:33;130.1;;;27.1;;
15500;SDS011;7852;52.228;5.990;2023-09-12T02:19:34;124.6;;;28.3;;
15500;SDS011;7852;52.228;5.990;2023-09-12T02:20:37;58.1;;;30.3;;
15500;SDS011;7852;52.228;5.990;2023-09-12T02:21:34;60.9;;;31.9;;
15500;SDS011;7852;52.228;5.990;2023-09-12T02:22:34;80.3;;;36.1;;
15500;SDS011;7852;52.228;5.990;2023-09-12T02:23:33;67.4;;;35.3;;
15500;SDS011;7852;52.228;5.990;2023-09-12T02:24:34;64.4;;;35.1;;
15500;SDS011;7852;52.228;5.990;2023-09-12T02:25:34;70.6;;;36.2;;
15500;SDS011;7852;52.228;5.990;2023-09-12T02:26:34;88.5;;;36.8;;
15500;SDS011;7852;52.228;5.990;2023-09-12T02:27:34;70.3;;;37.2;;
15500;SDS011;7852;52.228;5.990;2023-09-12T02:28:33;63.5;;;34.8;;
15500;SDS011;7852;52.228;5.990;2023-09-12T02:29:34;70.7;;;37.4;;
15500;SDS011;7852;52.228;5.990;2023-09-12T02:30:33;68.1;;;38.6;;
15500;SDS011;7852;52.228;5.990;2023-09-12T02:31:34;89.8;;;40.4;;
15500;SDS011;7852;52.228;5.990;2023-09-12T02:32:34;76.6;;;41.9;;
15500;SDS011;7852;52.228;5.990;2023-09-12T02:33:34;86;;;43.3;;
15500;SDS011;7852;52.228;5.990;2023-09-12T02:34:34;87;;;43.2;;
15500;SDS011;7852;52.228;5.990;2023-09-12T02:35:33;93.2;;;44;;
15500;SDS011;7852;52.228;5.990;2023-09-12T02:36:33;93.2;;;41.8;;
15500;SDS011;7852;52.228;5.990;2023-09-12T02:37:34;105.2;;;41;;
15500;SDS011;7852;52.228;5.990;2023-09-12T02:38:34;107.3;;;43.1;;
15500;SDS011;7852;52.228;5.990;2023-09-12T02:39:34;86.4;;;40.5;;
15500;SDS011;7852;52.228;5.990;2023-09-12T02:40:34;68.5;;;37.9;;
15500;SDS011;7852;52.228;5.990;2023-09-12T02:41:34;85.3;;;34.3;;
15500;SDS011;7852;52.228;5.990;2023-09-12T02:42:34;277.4;;;33.7;;
15500;SDS011;7852;52.228;5.990;2023-09-12T02:43:34;251.3;;;29.1;;
15500;SDS011;7852;52.228;5.990;2023-09-12T02:44:34;138.3;;;27.1;;
15500;SDS011;7852;52.228;5.990;2023-09-12T02:45:33;99.6;;;26.4;;
15500;SDS011;7852;52.228;5.990;2023-09-12T02:46:34;188.5;;;36.5;;
15500;SDS011;7852;52.228;5.990;2023-09-12T02:47:34;118.8;;;38.6;;
15500;SDS011;7852;52.228;5.990;2023-09-12T02:48:33;227.7;;;40.5;;
15500;SDS011;7852;52.228;5.990;2023-09-12T02:49:34;52.5;;;27.7;;
15500;SDS011;7852;52.228;5.990;2023-09-12T02:50:34;53.4;;;28.3;;
15500;SDS011;7852;52.228;5.990;2023-09-12T02:51:33;95.8;;;28.4;;
15500;SDS011;7852;52.228;5.990;2023-09-12T02:52:34;104.6;;;31.6;;
15500;SDS011;7852;52.228;5.990;2023-09-12T02:53:34;93.3;;;30.1;;
15500;SDS011;7852;52.228;5.990;2023-09-12T02:54:33;64.8;;;28;;
15500;SDS011;7852;52.228;5.990;2023-09-12T02:55:34;48.2;;;25.5;;
15500;SDS011;7852;52.228;5.990;2023-09-12T02:56:33;121.3;;;36.1;;
15500;SDS011;7852;52.228;5.990;2023-09-12T02:57:34;113.1;;;36.3;;
15500;SDS011;7852;52.228;5.990;2023-09-12T02:58:34;95.5;;;37.8;;
15500;SDS011;7852;52.228;5.990;2023-09-12T02:59:34;133.9;;;37.1;;
15500;SDS011;7852;52.228;5.990;2023-09-12T03:00:37;199.4;;;41.2;;
15500;SDS011;7852;52.228;5.990;2023-09-12T03:01:34;110.5;;;38.5;;
15500;SDS011;7852;52.228;5.990;2023-09-12T03:02:34;94.5;;;37.3;;
15500;SDS011;7852;52.228;5.990;2023-09-12T03:03:34;82;;;38;;
15500;SDS011;7852;52.228;5.990;2023-09-12T03:04:34;112.2;;;39.5;;
15500;SDS011;7852;52.228;5.990;2023-09-12T03:05:34;104.3;;;36.4;;
15500;SDS011;7852;52.228;5.990;2023-09-12T03:06:33;67.8;;;36.3;;
15500;SDS011;7852;52.228;5.990;2023-09-12T03:07:34;70.1;;;35.5;;
15500;SDS011;7852;52.228;5.990;2023-09-12T03:08:34;48;;;33.1;;
15500;SDS011;7852;52.228;5.990;2023-09-12T03:09:34;62.6;;;34.2;;
15500;SDS011;7852;52.228;5.990;2023-09-12T03:10:34;56.3;;;33;;
15500;SDS011;7852;52.228;5.990;2023-09-12T03:11:34;90.3;;;33.2;;
15500;SDS011;7852;52.228;5.990;2023-09-12T03:12:35;248.6;;;37.6;;
15500;SDS011;7852;52.228;5.990;2023-09-12T03:13:34;113.1;;;33.5;;
15500;SDS011;7852;52.228;5.990;2023-09-12T03:14:34;174.4;;;34.7;;
15500;SDS011;7852;52.228;5.990;2023-09-12T03:15:37;78.7;;;32.1;;
15500;SDS011;7852;52.228;5.990;2023-09-12T03:16:33;133.9;;;33.7;;
15500;SDS011;7852;52.228;5.990;2023-09-12T03:17:34;128.8;;;35.7;;
15500;SDS011;7852;52.228;5.990;2023-09-12T03:18:34;59.1;;;31.7;;
15500;SDS011;7852;52.228;5.990;2023-09-12T03:19:34;215;;;38.3;;
15500;SDS011;7852;52.228;5.990;2023-09-12T03:20:37;86.1;;;32.7;;
15500;SDS011;7852;52.228;5.990;2023-09-12T03:21:34;140.6;;;33.2;;
15500;SDS011;7852;52.228;5.990;2023-09-12T03:22:34;106;;;30.2;;
15500;SDS011;7852;52.228;5.990;2023-09-12T03:23:34;39.1;;;29.2;;
15500;SDS011;7852;52.228;5.990;2023-09-12T03:24:34;52.6;;;32.2;;
15500;SDS011;7852;52.228;5.990;2023-09-12T03:25:35;47.7;;;31.8;;
15500;SDS011;7852;52.228;5.990;2023-09-12T03:26:35;47.2;;;31.7;;
15500;SDS011;7852;52.228;5.990;2023-09-12T03:27:34;47.4;;;33;;
15500;SDS011;7852;52.228;5.990;2023-09-12T03:28:34;45.6;;;32;;
15500;SDS011;7852;52.228;5.990;2023-09-12T03:29:34;44.1;;;31.7;;
15500;SDS011;7852;52.228;5.990;2023-09-12T03:30:34;43.5;;;29.8;;
15500;SDS011;7852;52.228;5.990;2023-09-12T03:31:34;45.8;;;30.7;;
15500;SDS011;7852;52.228;5.990;2023-09-12T03:32:34;39.6;;;30;;
15500;SDS011;7852;52.228;5.990;2023-09-12T03:33:34;37.7;;;29.2;;
15500;SDS011;7852;52.228;5.990;2023-09-12T03:34:34;39.5;;;30.2;;
15500;SDS011;7852;52.228;5.990;2023-09-12T03:35:34;37.7;;;28.7;;
15500;SDS011;7852;52.228;5.990;2023-09-12T03:36:34;38.4;;;26.6;;
15500;SDS011;7852;52.228;5.990;2023-09-12T03:37:34;84.3;;;29.1;;
15500;SDS011;7852;52.228;5.990;2023-09-12T03:38:34;43.9;;;26.9;;
15500;SDS011;7852;52.228;5.990;2023-09-12T03:39:34;172.6;;;30.8;;
15500;SDS011;7852;52.228;5.990;2023-09-12T03:40:34;85.2;;;27.1;;
15500;SDS011;7852;52.228;5.990;2023-09-12T03:41:34;33.8;;;24;;
15500;SDS011;7852;52.228;5.990;2023-09-12T03:42:34;33.6;;;24.6;;
15500;SDS011;7852;52.228;5.990;2023-09-12T03:43:34;32.4;;;25.1;;
15500;SDS011;7852;52.228;5.990;2023-09-12T03:44:34;30.2;;;24.6;;
15500;SDS011;7852;52.228;5.990;2023-09-12T03:45:34;26.7;;;23.7;;
15500;SDS011;7852;52.228;5.990;2023-09-12T03:46:34;28.2;;;22.7;;
15500;SDS011;7852;52.228;5.990;2023-09-12T03:47:34;27.3;;;23.8;;
15500;SDS011;7852;52.228;5.990;2023-09-12T03:48:34;27.5;;;23.7;;
15500;SDS011;7852;52.228;5.990;2023-09-12T03:49:34;32.8;;;26.1;;
15500;SDS011;7852;52.228;5.990;2023-09-12T03:50:34;36.3;;;29.4;;
15500;SDS011;7852;52.228;5.990;2023-09-12T03:51:34;37;;;29.6;;
15500;SDS011;7852;52.228;5.990;2023-09-12T03:52:34;37.1;;;28.2;;
15500;SDS011;7852;52.228;5.990;2023-09-12T03:53:34;28.8;;;25.7;;
15500;SDS011;7852;52.228;5.990;2023-09-12T03:54:34;30.2;;;25.7;;
15500;SDS011;7852;52.228;5.990;2023-09-12T03:55:34;40.8;;;25.8;;
15500;SDS011;7852;52.228;5.990;2023-09-12T03:56:34;48.6;;;24.9;;
15500;SDS011;7852;52.228;5.990;2023-09-12T03:57:34;328.4;;;28.2;;
15500;SDS011;7852;52.228;5.990;2023-09-12T03:58:34;595.6;;;37.3;;
15500;SDS011;7852;52.228;5.990;2023-09-12T03:59:34;513.4;;;35.2;;
15500;SDS011;7852;52.228;5.990;2023-09-12T04:00:34;418.7;;;32.6;;
15500;SDS011;7852;52.228;5.990;2023-09-12T04:01:34;308.2;;;30.4;;
15500;SDS011;7852;52.228;5.990;2023-09-12T04:02:34;177;;;23.3;;
15500;SDS011;7852;52.228;5.990;2023-09-12T04:03:34;126.6;;;22.7;;
15500;SDS011;7852;52.228;5.990;2023-09-12T04:04:34;56.5;;;20.9;;
15500;SDS011;7852;52.228;5.990;2023-09-12T04:05:34;59;;;19.2;;
15500;SDS011;7852;52.228;5.990;2023-09-12T04:06:34;22.6;;;20.2;;
15500;SDS011;7852;52.228;5.990;2023-09-12T04:07:34;24.9;;;22.2;;
15500;SDS011;7852;52.228;5.990;2023-09-12T04:08:34;25.2;;;22.1;;
15500;SDS011;7852;52.228;5.990;2023-09-12T04:09:34;31.4;;;24.1;;
15500;SDS011;7852;52.228;5.990;2023-09-12T04:10:34;21.5;;;19.4;;
15500;SDS011;7852;52.228;5.990;2023-09-12T04:11:34;20.7;;;18.7;;
15500;SDS011;7852;52.228;5.990;2023-09-12T04:12:34;21;;;19;;
15500;SDS011;7852;52.228;5.990;2023-09-12T04:13:34;21;;;18.9;;
15500;SDS011;7852;52.228;5.990;2023-09-12T04:14:34;22.4;;;20;;
15500;SDS011;7852;52.228;5.990;2023-09-12T04:15:34;22.6;;;20.2;;
15500;SDS011;7852;52.228;5.990;2023-09-12T04:16:34;21.3;;;19.2;;
15500;SDS011;7852;52.228;5.990;2023-09-12T04:17:34;22.3;;;20;;
15500;SDS011;7852;52.228;5.990;2023-09-12T04:18:34;23.5;;;21.2;;
15500;SDS011;7852;52.228;5.990;2023-09-12T04:19:34;30.7;;;25.9;;
15500;SDS011;7852;52.228;5.990;2023-09-12T04:20:34;35.3;;;28.3;;
15500;SDS011;7852;52.228;5.990;2023-09-12T04:21:34;42.9;;;30.8;;
15500;SDS011;7852;52.228;5.990;2023-09-12T04:22:34;47;;;31.5;;
15500;SDS011;7852;52.228;5.990;2023-09-12T04:23:34;46.7;;;30.4;;
15500;SDS011;7852;52.228;5.990;2023-09-12T04:24:34;44.9;;;30.6;;
15500;SDS011;7852;52.228;5.990;2023-09-12T04:25:34;41.5;;;29.8;;
15500;SDS011;7852;52.228;5.990;2023-09-12T04:26:34;44.8;;;31.3;;
15500;SDS011;7852;52.228;5.990;2023-09-12T04:27:34;51.4;;;32.8;;
15500;SDS011;7852;52.228;5.990;2023-09-12T04:28:34;46.9;;;31.8;;
15500;SDS011;7852;52.228;5.990;2023-09-12T04:29:34;36.3;;;26;;
15500;SDS011;7852;52.228;5.990;2023-09-12T04:30:34;25.4;;;22;;
15500;SDS011;7852;52.228;5.990;2023-09-12T04:31:34;24.3;;;19.5;;
15500;SDS011;7852;52.228;5.990;2023-09-12T04:32:34;21.1;;;18.8;;
15500;SDS011;7852;52.228;5.990;2023-09-12T04:33:34;23.8;;;20.3;;
15500;SDS011;7852;52.228;5.990;2023-09-12T04:34:34;28.6;;;23.8;;
15500;SDS011;7852;52.228;5.990;2023-09-12T04:35:34;26.8;;;21.8;;
15500;SDS011;7852;52.228;5.990;2023-09-12T04:36:34;28;;;21.4;;
15500;SDS011;7852;52.228;5.990;2023-09-12T04:37:34;20.9;;;18.4;;
15500;SDS011;7852;52.228;5.990;2023-09-12T04:38:34;25;;;19.1;;
15500;SDS011;7852;52.228;5.990;2023-09-12T04:39:34;22.2;;;19.8;;
15500;SDS011;7852;52.228;5.990;2023-09-12T04:40:34;21;;;18.9;;
15500;SDS011;7852;52.228;5.990;2023-09-12T04:41:34;20.9;;;18.8;;
15500;SDS011;7852;52.228;5.990;2023-09-12T04:42:34;21.1;;;18.9;;
15500;SDS011;7852;52.228;5.990;2023-09-12T04:43:34;25.6;;;21.6;;
15500;SDS011;7852;52.228;5.990;2023-09-12T04:44:34;44.2;;;29.3;;
15500;SDS011;7852;52.228;5.990;2023-09-12T04:45:34;42.8;;;29.5;;
15500;SDS011;7852;52.228;5.990;2023-09-12T04:46:34;51.4;;;31.8;;
15500;SDS011;7852;52.228;5.990;2023-09-12T04:47:34;51.6;;;33.5;;
15500;SDS011;7852;52.228;5.990;2023-09-12T04:48:34;46.9;;;32.3;;
15500;SDS011;7852;52.228;5.990;2023-09-12T04:49:34;48.1;;;32.1;;
15500;SDS011;7852;52.228;5.990;2023-09-12T04:50:34;47.4;;;33.1;;
15500;SDS011;7852;52.228;5.990;2023-09-12T04:51:34;49.2;;;32.9;;
15500;SDS011;7852;52.228;5.990;2023-09-12T04:52:34;51.3;;;33.8;;
15500;SDS011;7852;52.228;5.990;2023-09-12T04:53:34;50;;;32.6;;
15500;SDS011;7852;52.228;5.990;2023-09-12T04:54:34;51.8;;;31.9;;
15500;SDS011;7852;52.228;5.990;2023-09-12T04:55:34;48.5;;;32;;
15500;SDS011;7852;52.228;5.990;2023-09-12T04:56:34;50.3;;;32.9;;
15500;SDS011;7852;52.228;5.990;2023-09-12T04:57:34;47;;;32.5;;
15500;SDS011;7852;52.228;5.990;2023-09-12T04:58:34;45.6;;;32;;
15500;SDS011;7852;52.228;5.990;2023-09-12T04:59:34;50;;;32.5;;
15500;SDS011;7852;52.228;5.990;2023-09-12T05:00:34;46.6;;;31.8;;
15500;SDS011;7852;52.228;5.990;2023-09-12T05:01:34;51.1;;;33.6;;
15500;SDS011;7852;52.228;5.990;2023-09-12T05:02:34;49.7;;;32.9;;
15500;SDS011;7852;52.228;5.990;2023-09-12T05:03:34;46.8;;;31.9;;
15500;SDS011;7852;52.228;5.990;2023-09-12T05:04:34;52;;;32;;
15500;SDS011;7852;52.228;5.990;2023-09-12T05:05:34;50.4;;;32;;
15500;SDS011;7852;52.228;5.990;2023-09-12T05:06:34;54.5;;;33.5;;
15500;SDS011;7852;52.228;5.990;2023-09-12T05:07:34;56.4;;;34;;
15500;SDS011;7852;52.228;5.990;2023-09-12T05:08:34;55.3;;;34.3;;
15500;SDS011;7852;52.228;5.990;2023-09-12T05:09:34;56.4;;;34.5;;
15500;SDS011;7852;52.228;5.990;2023-09-12T05:10:34;52.5;;;33.8;;
15500;SDS011;7852;52.228;5.990;2023-09-12T05:11:34;54.9;;;35;;
15500;SDS011;7852;52.228;5.990;2023-09-12T05:12:34;55.2;;;35.3;;
15500;SDS011;7852;52.228;5.990;2023-09-12T05:13:34;52.5;;;33.7;;
15500;SDS011;7852;52.228;5.990;2023-09-12T05:14:34;52.4;;;34;;
15500;SDS011;7852;52.228;5.990;2023-09-12T05:15:34;55.5;;;34.8;;
15500;SDS011;7852;52.228;5.990;2023-09-12T05:16:34;59.2;;;36.1;;
15500;SDS011;7852;52.228;5.990;2023-09-12T05:17:34;60;;;35.9;;
15500;SDS011;7852;52.228;5.990;2023-09-12T05:18:34;56.4;;;36;;
15500;SDS011;7852;52.228;5.990;2023-09-12T05:19:34;62.1;;;36.1;;
15500;SDS011;7852;52.228;5.990;2023-09-12T05:20:34;60.7;;;35.4;;
15500;SDS011;7852;52.228;5.990;2023-09-12T05:21:34;58.7;;;36;;
15500;SDS011;7852;52.228;5.990;2023-09-12T05:22:34;58.5;;;34.5;;
15500;SDS011;7852;52.228;5.990;2023-09-12T05:23:34;60.9;;;35.7;;
15500;SDS011;7852;52.228;5.990;2023-09-12T05:24:34;56.4;;;35.4;;
15500;SDS011;7852;52.228;5.990;2023-09-12T05:25:34;57;;;34.2;;
15500;SDS011;7852;52.228;5.990;2023-09-12T05:26:34;53.9;;;32.7;;
15500;SDS011;7852;52.228;5.990;2023-09-12T05:27:34;56.4;;;34.8;;
15500;SDS011;7852;52.228;5.990;2023-09-12T05:28:34;64.3;;;35;;
15500;SDS011;7852;52.228;5.990;2023-09-12T05:29:34;59.9;;;34.1;;
15500;SDS011;7852;52.228;5.990;2023-09-12T05:30:34;70.9;;;36.1;;
15500;SDS011;7852;52.228;5.990;2023-09-12T05:31:34;64.6;;;34.5;;
15500;SDS011;7852;52.228;5.990;2023-09-12T05:32:34;81.7;;;35.9;;
15500;SDS011;7852;52.228;5.990;2023-09-12T05:33:34;69.1;;;32.2;;
15500;SDS011;7852;52.228;5.990;2023-09-12T05:34:34;64.3;;;33.2;;
15500;SDS011;7852;52.228;5.990;2023-09-12T05:35:34;61.9;;;32.3;;
15500;SDS011;7852;52.228;5.990;2023-09-12T05:36:34;57.1;;;30.6;;
15500;SDS011;7852;52.228;5.990;2023-09-12T05:37:34;57.2;;;31;;
15500;SDS011;7852;52.228;5.990;2023-09-12T05:38:34;54.1;;;30.4;;
15500;SDS011;7852;52.228;5.990;2023-09-12T05:39:35;60.6;;;30.5;;
15500;SDS011;7852;52.228;5.990;2023-09-12T05:40:35;48.4;;;30.9;;
15500;SDS011;7852;52.228;5.990;2023-09-12T05:41:35;49.9;;;29.4;;
15500;SDS011;7852;52.228;5.990;2023-09-12T05:42:35;48.7;;;29.2;;
15500;SDS011;7852;52.228;5.990;2023-09-12T05:43:35;59.4;;;31.5;;
15500;SDS011;7852;52.228;5.990;2023-09-12T05:44:35;49;;;30.5;;
15500;SDS011;7852;52.228;5.990;2023-09-12T05:45:35;59;;;31.8;;
15500;SDS011;7852;52.228;5.990;2023-09-12T05:46:35;48.7;;;31;;
15500;SDS011;7852;52.228;5.990;2023-09-12T05:47:35;53.9;;;30.9;;
15500;SDS011;7852;52.228;5.990;2023-09-12T05:48:35;59;;;32.2;;
15500;SDS011;7852;52.228;5.990;2023-09-12T05:49:35;54.7;;;33.1;;
15500;SDS011;7852;52.228;5.990;2023-09-12T05:50:36;52.6;;;32.3;;
15500;SDS011;7852;52.228;5.990;2023-09-12T05:51:35;48.7;;;29.9;;
15500;SDS011;7852;52.228;5.990;2023-09-12T05:52:35;46.7;;;29.1;;
15500;SDS011;7852;52.228;5.990;2023-09-12T05:53:35;50.3;;;30.3;;
15500;SDS011;7852;52.228;5.990;2023-09-12T05:54:35;52;;;30.5;;
15500;SDS011;7852;52.228;5.990;2023-09-12T05:55:35;53.9;;;32;;
15500;SDS011;7852;52.228;5.990;2023-09-12T05:56:35;54.6;;;32.7;;
15500;SDS011;7852;52.228;5.990;2023-09-12T05:57:35;64;;;34.2;;
15500;SDS011;7852;52.228;5.990;2023-09-12T05:58:35;64.5;;;34.8;;
15500;SDS011;7852;52.228;5.990;2023-09-12T05:59:35;61.6;;;34.8;;
15500;SDS011;7852;52.228;5.990;2023-09-12T06:00:35;62.9;;;34.5;;
15500;SDS011;7852;52.228;5.990;2023-09-12T06:01:35;56.4;;;35;;
15500;SDS011;7852;52.228;5.990;2023-09-12T06:02:35;63.2;;;34.7;;
15500;SDS011;7852;52.228;5.990;2023-09-12T06:03:35;60.4;;;37.5;;
15500;SDS011;7852;52.228;5.990;2023-09-12T06:04:35;63.6;;;39.3;;
15500;SDS011;7852;52.228;5.990;2023-09-12T06:05:35;66.6;;;40.1;;
15500;SDS011;7852;52.228;5.990;2023-09-12T06:06:35;70.1;;;40.7;;
15500;SDS011;7852;52.228;5.990;2023-09-12T06:07:35;65.1;;;39.1;;
15500;SDS011;7852;52.228;5.990;2023-09-12T06:08:35;63.2;;;37.9;;